^^
WoodinvilleWX Historical Data
Daily Summary for October 6, 2017 Units:  English    Metric   Both
Daily Weekly Monthly Yearly Custom
  High: Low: Average:
Temperature: 62.9 °F 41.4 °F 50.5 °F
Dew Point: 51.6 °F 39.3 °F 44.3 °F
Humidity: 93% 48% 81%
Wind Speed: 5.0mph 0.0mph 0.5mph
Wind Gust: 9.0mph - -
Wind- - SSE
Pressure: 30.13 in 29.87 in -
Precipitation: 0.07 in    
Historical Graphs
 
 
Tabular Data for October 6, 2017
Time Temperature Dew Point Pressure Wind Wind Speed Wind Gust Humidity Rainfall Rate (Hourly)
00:00 45.4 °F 43.2 °F 30.12 in Calm     92% 0.00 in
00:02 45.5 °F 43.3 °F 30.11 in Calm     92% 0.00 in
00:05 45.6 °F 43.4 °F 30.12 in Calm     92% 0.00 in
00:07 45.6 °F 43.4 °F 30.12 in Calm     92% 0.00 in
00:10 45.7 °F 43.5 °F 30.12 in Calm     92% 0.00 in
00:12 45.9 °F 43.7 °F 30.12 in Calm     92% 0.00 in
00:15 45.9 °F 43.7 °F 30.12 in Calm     92% 0.00 in
00:17 45.9 °F 44.0 °F 30.12 in Calm     93% 0.00 in
00:20 46.0 °F 44.1 °F 30.12 in Calm     93% 0.00 in
00:22 45.9 °F 44.0 °F 30.12 in Calm     93% 0.00 in
00:25 45.9 °F 43.7 °F 30.11 in Calm     92% 0.00 in
00:27 45.8 °F 43.6 °F 30.11 in Calm     92% 0.00 in
00:30 45.7 °F 43.5 °F 30.11 in Calm     92% 0.00 in
00:32 45.6 °F 43.4 °F 30.11 in Calm     92% 0.00 in
00:35 45.6 °F 43.4 °F 30.11 in Calm     92% 0.00 in
00:37 45.6 °F 43.4 °F 30.12 in Calm     92% 0.00 in
00:40 45.7 °F 43.8 °F 30.12 in Calm     93% 0.00 in
00:42 45.9 °F 43.7 °F 30.12 in Calm     92% 0.00 in
00:45 45.9 °F 44.0 °F 30.12 in Calm     93% 0.00 in
00:50 45.9 °F 44.0 °F 30.12 in Calm     93% 0.00 in
00:55 45.8 °F 43.9 °F 30.12 in Calm     93% 0.00 in
00:58 45.8 °F 43.9 °F 30.12 in Calm     93% 0.00 in
01:00 45.7 °F 43.8 °F 30.12 in Calm     93% 0.00 in
01:03 45.6 °F 43.7 °F 30.13 in Calm     93% 0.00 in
01:08 45.6 °F 43.7 °F 30.12 in Calm     93% 0.00 in
01:10 45.5 °F 43.6 °F 30.13 in Calm     93% 0.00 in
01:13 45.4 °F 43.5 °F 30.13 in Calm     93% 0.00 in
01:15 45.4 °F 43.5 °F 30.13 in Calm     93% 0.00 in
01:20 45.2 °F 43.3 °F 30.13 in Calm     93% 0.00 in
01:23 45.1 °F 43.2 °F 30.13 in Calm     93% 0.00 in
01:25 45.1 °F 43.2 °F 30.13 in Calm     93% 0.00 in
01:28 44.9 °F 43.0 °F 30.13 in Calm     93% 0.00 in
01:30 44.9 °F 43.0 °F 30.13 in Calm     93% 0.00 in
01:33 44.8 °F 42.9 °F 30.13 in Calm     93% 0.00 in
01:35 44.8 °F 42.9 °F 30.13 in Calm     93% 0.00 in
01:38 44.7 °F 42.8 °F 30.12 in Calm     93% 0.00 in
01:40 44.6 °F 42.7 °F 30.12 in Calm     93% 0.00 in
01:43 44.5 °F 42.6 °F 30.13 in Calm     93% 0.00 in
01:45 44.5 °F 42.6 °F 30.13 in Calm     93% 0.00 in
01:48 44.5 °F 42.6 °F 30.13 in Calm     93% 0.00 in
01:50 44.5 °F 42.6 °F 30.13 in Calm     93% 0.00 in
01:53 44.4 °F 42.5 °F 30.13 in Calm     93% 0.00 in
01:55 44.3 °F 42.4 °F 30.13 in Calm     93% 0.00 in
01:58 44.2 °F 42.3 °F 30.13 in Calm     93% 0.00 in
02:00 44.2 °F 42.3 °F 30.13 in Calm     93% 0.00 in
02:03 44.0 °F 42.1 °F 30.13 in Calm     93% 0.00 in
02:05 44.0 °F 42.1 °F 30.13 in Calm     93% 0.00 in
02:08 43.9 °F 42.0 °F 30.13 in Calm     93% 0.00 in
02:13 43.8 °F 41.9 °F 30.13 in Calm     93% 0.00 in
02:15 43.8 °F 41.9 °F 30.13 in Calm     93% 0.00 in
02:18 43.7 °F 41.8 °F 30.13 in Calm     93% 0.00 in
02:24 43.5 °F 41.6 °F 30.13 in Calm     93% 0.00 in
02:25 43.5 °F 41.6 °F 30.13 in Calm     93% 0.00 in
02:29 43.4 °F 41.5 °F 30.12 in Calm     93% 0.00 in
02:30 43.4 °F 41.5 °F 30.12 in Calm     93% 0.00 in
02:34 43.3 °F 41.4 °F 30.12 in Calm     93% 0.00 in
02:35 43.3 °F 41.4 °F 30.12 in Calm     93% 0.00 in
02:39 43.2 °F 41.3 °F 30.12 in Calm     93% 0.00 in
02:40 43.2 °F 41.3 °F 30.12 in Calm     93% 0.00 in
02:44 43.0 °F 41.1 °F 30.11 in Calm     93% 0.00 in
02:45 43.0 °F 41.1 °F 30.11 in Calm     93% 0.00 in
02:49 42.9 °F 41.0 °F 30.11 in Calm     93% 0.00 in
02:50 43.0 °F 41.1 °F 30.11 in Calm     93% 0.00 in
02:54 43.0 °F 41.1 °F 30.11 in Calm     93% 0.00 in
02:55 43.0 °F 41.1 °F 30.11 in Calm     93% 0.00 in
02:59 42.9 °F 41.0 °F 30.11 in Calm     93% 0.00 in
03:00 42.9 °F 41.0 °F 30.11 in Calm     93% 0.00 in
03:04 42.9 °F 41.0 °F 30.11 in Calm     93% 0.00 in
03:05 42.9 °F 41.0 °F 30.11 in Calm     93% 0.00 in
03:09 42.9 °F 41.0 °F 30.11 in Calm     93% 0.00 in
03:10 42.9 °F 41.0 °F 30.11 in Calm     93% 0.00 in
03:14 42.9 °F 41.0 °F 30.10 in Calm     93% 0.00 in
03:15 42.9 °F 41.0 °F 30.10 in Calm     93% 0.00 in
03:19 42.8 °F 40.9 °F 30.10 in Calm     93% 0.00 in
03:20 42.8 °F 40.9 °F 30.10 in Calm     93% 0.00 in
03:24 42.7 °F 40.8 °F 30.11 in Calm     93% 0.00 in
03:25 42.7 °F 40.8 °F 30.11 in Calm     93% 0.00 in
03:29 42.7 °F 40.8 °F 30.11 in Calm     93% 0.00 in
03:30 42.7 °F 40.8 °F 30.11 in Calm     93% 0.00 in
03:34 42.7 °F 40.8 °F 30.11 in Calm     93% 0.00 in
03:35 42.7 °F 40.8 °F 30.11 in Calm     93% 0.00 in
03:39 42.7 °F 40.8 °F 30.11 in Calm     93% 0.00 in
03:40 42.7 °F 40.8 °F 30.11 in Calm     93% 0.00 in
03:44 42.6 °F 40.7 °F 30.11 in Calm     93% 0.00 in
03:45 42.6 °F 40.7 °F 30.11 in Calm     93% 0.00 in
03:49 42.5 °F 40.6 °F 30.11 in Calm     93% 0.00 in
03:50 42.5 °F 40.6 °F 30.11 in Calm     93% 0.00 in
03:55 42.4 °F 40.5 °F 30.11 in Calm     93% 0.00 in
04:00 42.4 °F 40.5 °F 30.10 in Calm     93% 0.00 in
04:05 42.3 °F 40.4 °F 30.10 in Calm     93% 0.00 in
04:10 42.3 °F 40.4 °F 30.10 in Calm     93% 0.00 in
04:15 42.2 °F 40.3 °F 30.10 in Calm     93% 0.00 in
04:20 42.1 °F 40.2 °F 30.10 in Calm     93% 0.00 in
04:25 42.1 °F 40.2 °F 30.10 in Calm     93% 0.00 in
04:30 41.9 °F 40.0 °F 30.10 in Calm     93% 0.00 in
04:35 41.9 °F 40.0 °F 30.10 in Calm     93% 0.00 in
04:40 42.0 °F 40.1 °F 30.11 in Calm     93% 0.00 in
04:45 41.9 °F 40.0 °F 30.11 in Calm     93% 0.00 in
04:50 41.8 °F 39.9 °F 30.10 in Calm     93% 0.00 in
04:55 41.7 °F 39.8 °F 30.09 in Calm     93% 0.00 in
05:00 41.4 °F 39.5 °F 30.08 in Calm     93% 0.00 in
05:05 41.4 °F 39.5 °F 30.09 in Calm     93% 0.00 in
05:10 41.5 °F 39.3 °F 30.09 in Calm     92% 0.00 in
05:15 41.5 °F 39.6 °F 30.09 in Calm     93% 0.00 in
05:20 41.6 °F 39.5 °F 30.10 in Calm     92% 0.00 in
05:21 41.6 °F 39.5 °F 30.09 in Calm     92% 0.00 in
05:25 41.6 °F 39.5 °F 30.09 in Calm     92% 0.00 in
05:26 41.6 °F 39.5 °F 30.10 in Calm     92% 0.00 in
05:31 41.7 °F 39.5 °F 30.10 in Calm     92% 0.00 in
05:35 41.7 °F 39.8 °F 30.09 in Calm     93% 0.00 in
05:36 41.6 °F 39.7 °F 30.09 in Calm     93% 0.00 in
05:40 41.6 °F 39.7 °F 30.08 in Calm     93% 0.00 in
05:41 41.6 °F 39.7 °F 30.08 in Calm     93% 0.00 in
05:45 41.6 °F 39.7 °F 30.08 in Calm     93% 0.00 in
05:46 41.6 °F 39.7 °F 30.09 in Calm     93% 0.00 in
05:50 41.6 °F 39.7 °F 30.09 in Calm     93% 0.00 in
05:51 41.6 °F 39.7 °F 30.09 in Calm     93% 0.00 in
05:55 41.7 °F 39.5 °F 30.09 in Calm     92% 0.00 in
05:56 41.7 °F 39.5 °F 30.09 in Calm     92% 0.00 in
06:00 41.8 °F 39.7 °F 30.09 in Calm     92% 0.00 in
06:01 41.7 °F 39.5 °F 30.09 in Calm     92% 0.00 in
06:05 41.8 °F 39.9 °F 30.09 in Calm     93% 0.00 in
06:06 41.8 °F 39.9 °F 30.08 in Calm     93% 0.00 in
06:10 41.8 °F 39.9 °F 30.08 in Calm     93% 0.00 in
06:11 41.7 °F 39.8 °F 30.08 in Calm     93% 0.00 in
06:15 41.8 °F 39.9 °F 30.08 in Calm     93% 0.00 in
06:16 41.8 °F 39.9 °F 30.08 in Calm     93% 0.00 in
06:20 41.7 °F 39.8 °F 30.08 in Calm     93% 0.00 in
06:21 41.8 °F 39.9 °F 30.08 in Calm     93% 0.00 in
06:25 41.8 °F 39.9 °F 30.08 in Calm     93% 0.00 in
06:26 41.8 °F 39.9 °F 30.09 in Calm     93% 0.00 in
06:30 41.9 °F 40.0 °F 30.08 in Calm     93% 0.00 in
06:31 41.8 °F 39.9 °F 30.08 in Calm     93% 0.00 in
06:35 41.8 °F 39.9 °F 30.08 in Calm     93% 0.00 in
06:37 41.8 °F 39.9 °F 30.08 in Calm     93% 0.00 in
06:40 41.8 °F 39.9 °F 30.08 in Calm     93% 0.00 in
06:42 41.8 °F 39.9 °F 30.08 in Calm     93% 0.00 in
06:45 41.7 °F 39.8 °F 30.08 in Calm     93% 0.00 in
06:47 41.7 °F 39.8 °F 30.09 in Calm     93% 0.00 in
06:50 41.7 °F 39.8 °F 30.09 in Calm     93% 0.00 in
06:52 41.7 °F 39.8 °F 30.08 in Calm     93% 0.00 in
06:55 41.7 °F 39.8 °F 30.08 in Calm     93% 0.00 in
06:57 41.7 °F 39.8 °F 30.08 in Calm     93% 0.00 in
07:00 41.6 °F 39.7 °F 30.08 in Calm     93% 0.00 in
07:02 41.5 °F 39.6 °F 30.08 in Calm     93% 0.00 in
07:05 41.5 °F 39.6 °F 30.08 in Calm     93% 0.00 in
07:07 41.5 °F 39.6 °F 30.09 in Calm     93% 0.00 in
07:10 41.5 °F 39.6 °F 30.09 in Calm     93% 0.00 in
07:12 41.5 °F 39.6 °F 30.09 in Calm     93% 0.00 in
07:15 41.5 °F 39.6 °F 30.09 in Calm     93% 0.00 in
07:20 41.5 °F 39.6 °F 30.09 in Calm     93% 0.00 in
07:22 41.5 °F 39.6 °F 30.10 in Calm     93% 0.00 in
07:25 41.5 °F 39.6 °F 30.10 in Calm     93% 0.00 in
07:27 41.5 °F 39.6 °F 30.09 in Calm     93% 0.00 in
07:30 41.4 °F 39.5 °F 30.10 in Calm     93% 0.00 in
07:33 41.5 °F 39.6 °F 30.10 in Calm     93% 0.00 in
07:35 41.5 °F 39.6 °F 30.10 in Calm     93% 0.00 in
07:38 41.5 °F 39.6 °F 30.10 in Calm     93% 0.00 in
07:40 41.4 °F 39.5 °F 30.10 in Calm     93% 0.00 in
07:43 41.4 °F 39.5 °F 30.10 in Calm     93% 0.00 in
07:45 41.4 °F 39.5 °F 30.10 in Calm     93% 0.00 in
07:48 41.4 °F 39.5 °F 30.09 in Calm     93% 0.00 in
07:50 41.4 °F 39.5 °F 30.09 in Calm     93% 0.00 in
07:53 41.4 °F 39.5 °F 30.09 in Calm     93% 0.00 in
07:55 41.4 °F 39.5 °F 30.09 in Calm     93% 0.00 in
07:58 41.5 °F 39.6 °F 30.09 in Calm     93% 0.00 in
08:00 41.4 °F 39.5 °F 30.09 in Calm     93% 0.00 in
08:03 41.6 °F 39.5 °F 30.09 in Calm     92% 0.00 in
08:05 41.6 °F 39.5 °F 30.09 in Calm     92% 0.00 in
08:08 41.7 °F 39.5 °F 30.09 in Calm     92% 0.00 in
08:10 41.7 °F 39.5 °F 30.09 in Calm     92% 0.00 in
08:13 41.7 °F 39.8 °F 30.09 in Calm     93% 0.00 in
08:15 41.7 °F 39.8 °F 30.10 in Calm     93% 0.00 in
08:20 41.8 °F 39.9 °F 30.10 in Calm     93% 0.00 in
08:23 41.9 °F 40.0 °F 30.10 in Calm     93% 0.00 in
08:28 42.0 °F 40.1 °F 30.10 in Calm     93% 0.00 in
08:30 42.0 °F 40.1 °F 30.10 in Calm     93% 0.00 in
08:33 42.0 °F 40.1 °F 30.10 in Calm     93% 0.00 in
08:38 42.2 °F 40.3 °F 30.09 in Calm     93% 0.00 in
08:40 42.2 °F 40.0 °F 30.09 in Calm     92% 0.00 in
08:43 42.3 °F 40.4 °F 30.09 in Calm     93% 0.00 in
08:45 42.3 °F 40.4 °F 30.09 in Calm     93% 0.00 in
08:48 42.4 °F 40.2 °F 30.09 in Calm     92% 0.00 in
08:50 42.4 °F 40.2 °F 30.09 in Calm     92% 0.00 in
08:53 42.6 °F 40.4 °F 30.09 in Calm     92% 0.00 in
08:55 42.6 °F 40.4 °F 30.09 in Calm     92% 0.00 in
08:58 42.7 °F 40.5 °F 30.10 in Calm     92% 0.00 in
09:00 42.8 °F 40.6 °F 30.10 in Calm     92% 0.00 in
09:04 43.0 °F 40.6 °F 30.09 in Calm     91% 0.00 in
09:05 43.1 °F 40.7 °F 30.09 in Calm     91% 0.00 in
09:09 43.5 °F 40.8 °F 30.09 in Calm     90% 0.00 in
09:10 43.6 °F 40.9 °F 30.09 in Calm     90% 0.00 in
09:14 44.1 °F 41.4 °F 30.09 in Calm     90% 0.00 in
09:19 44.6 °F 41.6 °F 30.08 in Calm     89% 0.00 in
09:20 44.6 °F 41.6 °F 30.08 in Calm     89% 0.00 in
09:24 45.0 °F 42.0 °F 30.09 in Calm     89% 0.00 in
09:25 45.0 °F 42.0 °F 30.09 in Calm     89% 0.00 in
09:29 45.5 °F 42.5 °F 30.08 in Calm     89% 0.00 in
09:30 45.6 °F 42.5 °F 30.08 in Calm     89% 0.00 in
09:32 46.3 °F 43.0 °F 30.08 in Calm   4.0 mph 88% 0.00 in
09:35 46.6 °F 43.2 °F 30.08 in Calm   4.0 mph 88% 0.00 in
09:37 47.2 °F 44.4 °F 30.08 in Calm     90% 0.00 in
09:40 47.7 °F 45.2 °F 30.08 in Calm     91% 0.00 in
09:42 48.6 °F 46.4 °F 30.08 in Calm   3.0 mph 92% 0.00 in
09:45 49.1 °F 46.9 °F 30.08 in ESE 1.0 mph 3.0 mph 92% 0.00 in
09:48 50.2 °F 48.0 °F 30.08 in SSE 1.0 mph 4.0 mph 92% 0.00 in
09:50 50.5 °F 48.3 °F 30.08 in SSE 2.0 mph 4.0 mph 92% 0.00 in
09:53 50.9 °F 47.8 °F 30.09 in Calm   2.0 mph 89% 0.00 in
09:55 51.0 °F 47.9 °F 30.09 in SE 1.0 mph 3.0 mph 89% 0.00 in
09:58 51.4 °F 48.0 °F 30.09 in South 1.0 mph 2.0 mph 88% 0.00 in
10:00 51.6 °F 48.2 °F 30.09 in Calm   2.0 mph 88% 0.00 in
10:03 52.0 °F 48.3 °F 30.09 in SE 1.0 mph 2.0 mph 87% 0.00 in
10:05 52.0 °F 48.0 °F 30.09 in SE 2.0 mph 4.0 mph 86% 0.00 in
10:08 52.3 °F 48.2 °F 30.08 in Calm   5.0 mph 86% 0.00 in
10:10 52.3 °F 48.2 °F 30.08 in Calm   5.0 mph 86% 0.00 in
10:13 52.5 °F 47.8 °F 30.07 in Calm   5.0 mph 84% 0.00 in
10:15 52.5 °F 47.8 °F 30.07 in Calm   5.0 mph 84% 0.00 in
10:18 52.7 °F 47.7 °F 30.07 in SE 2.0 mph 2.0 mph 83% 0.00 in
10:20 52.8 °F 46.5 °F 30.07 in ESE 1.0 mph 2.0 mph 79% 0.00 in
10:23 53.2 °F 47.2 °F 30.07 in SSE 1.0 mph 6.0 mph 80% 0.00 in
10:25 53.4 °F 47.7 °F 30.07 in Calm   6.0 mph 81% 0.00 in
10:28 53.9 °F 47.5 °F 30.07 in Calm   1.0 mph 79% 0.00 in
10:30 54.0 °F 47.0 °F 30.07 in Calm   2.0 mph 77% 0.00 in
10:33 54.5 °F 46.8 °F 30.07 in Calm   3.0 mph 75% 0.00 in
10:35 54.6 °F 47.5 °F 30.07 in Calm   3.0 mph 77% 0.00 in
10:38 55.3 °F 47.5 °F 30.07 in Calm     75% 0.00 in
10:40 55.5 °F 48.4 °F 30.07 in Calm   1.0 mph 77% 0.00 in
10:43 56.3 °F 48.1 °F 30.06 in East 3.0 mph 4.0 mph 74% 0.00 in
10:45 56.5 °F 48.0 °F 30.06 in ENE 1.0 mph 4.0 mph 73% 0.00 in
10:48 57.3 °F 48.0 °F 30.07 in Calm   5.0 mph 71% 0.00 in
10:50 57.5 °F 48.6 °F 30.07 in Calm   5.0 mph 72% 0.00 in
10:53 58.1 °F 48.0 °F 30.07 in Calm   6.0 mph 69% 0.00 in
10:55 58.2 °F 48.1 °F 30.07 in Calm   6.0 mph 69% 0.00 in
10:58 58.7 °F 49.0 °F 30.07 in Calm   1.0 mph 70% 0.00 in
11:00 58.7 °F 48.2 °F 30.07 in ESE 1.0 mph 2.0 mph 68% 0.00 in
11:03 59.1 °F 47.8 °F 30.07 in ESE 4.0 mph 5.0 mph 66% 0.00 in
11:05 59.2 °F 47.0 °F 30.07 in South 2.0 mph 5.0 mph 64% 0.00 in
11:08 59.6 °F 47.8 °F 30.07 in ESE 4.0 mph 6.0 mph 65% 0.00 in
11:10 59.6 °F 47.0 °F 30.07 in Calm   6.0 mph 63% 0.00 in
11:13 59.6 °F 47.4 °F 30.07 in South 1.0 mph 2.0 mph 64% 0.00 in
11:15 59.6 °F 45.7 °F 30.07 in SE 1.0 mph 3.0 mph 60% 0.00 in
11:18 59.7 °F 47.9 °F 30.06 in Calm   4.0 mph 65% 0.00 in
11:20 59.8 °F 48.4 °F 30.06 in Calm   4.0 mph 66% 0.00 in
11:24 60.0 °F 47.8 °F 30.06 in Calm     64% 0.00 in
11:25 60.0 °F 47.8 °F 30.06 in Calm     64% 0.00 in
11:29 60.1 °F 45.3 °F 30.06 in ENE 1.0 mph 3.0 mph 58% 0.00 in
11:30 60.1 °F 45.3 °F 30.06 in ENE 1.0 mph 3.0 mph 58% 0.00 in
11:34 60.5 °F 42.8 °F 30.06 in ENE 1.0 mph 2.0 mph 52% 0.00 in
11:40 60.9 °F 43.2 °F 30.06 in Calm   4.0 mph 52% 0.00 in
11:44 61.0 °F 41.7 °F 30.05 in South 1.0 mph 6.0 mph 49% 0.00 in
11:45 61.0 °F 43.3 °F 30.05 in South 1.0 mph 6.0 mph 52% 0.00 in
11:49 61.2 °F 43.5 °F 30.05 in ESE 2.0 mph 4.0 mph 52% 0.00 in
11:50 61.2 °F 43.0 °F 30.05 in ESE 1.0 mph 4.0 mph 51% 0.00 in
11:54 61.6 °F 41.7 °F 30.04 in ENE 2.0 mph 8.0 mph 48% 0.00 in
11:55 61.6 °F 42.3 °F 30.04 in NE 1.0 mph 8.0 mph 49% 0.00 in
11:59 61.6 °F 42.8 °F 30.04 in SSE 2.0 mph 5.0 mph 50% 0.00 in
12:00 61.6 °F 42.8 °F 30.04 in SSE 3.0 mph 5.0 mph 50% 0.00 in
12:04 61.6 °F 42.8 °F 30.04 in Calm   4.0 mph 50% 0.00 in
12:05 61.6 °F 42.8 °F 30.04 in Calm   4.0 mph 50% 0.00 in
12:09 61.6 °F 43.3 °F 30.03 in Calm   5.0 mph 51% 0.00 in
12:10 61.5 °F 43.2 °F 30.03 in Calm   5.0 mph 51% 0.00 in
12:15 61.4 °F 43.6 °F 30.03 in West 2.0 mph 4.0 mph 52% 0.00 in
12:19 61.0 °F 42.2 °F 30.03 in SSE 4.0 mph 8.0 mph 50% 0.00 in
12:20 60.9 °F 42.2 °F 30.03 in SE 4.0 mph 8.0 mph 50% 0.00 in
12:24 60.5 °F 44.3 °F 30.04 in Calm   6.0 mph 55% 0.00 in
12:25 60.5 °F 44.3 °F 30.04 in Calm   6.0 mph 55% 0.00 in
12:29 60.0 °F 43.3 °F 30.04 in Calm   7.0 mph 54% 0.00 in
12:30 60.0 °F 43.3 °F 30.04 in Calm   7.0 mph 54% 0.00 in
12:34 59.7 °F 44.5 °F 30.04 in Calm   4.0 mph 57% 0.00 in
12:35 59.7 °F 44.5 °F 30.04 in Calm   4.0 mph 57% 0.00 in
12:39 59.6 °F 42.5 °F 30.04 in Calm   5.0 mph 53% 0.00 in
12:40 59.6 °F 42.5 °F 30.04 in Calm   5.0 mph 53% 0.00 in
12:44 59.5 °F 42.9 °F 30.04 in Calm     54% 0.00 in
12:45 59.5 °F 42.9 °F 30.04 in Calm   4.0 mph 54% 0.00 in
12:49 59.6 °F 44.8 °F 30.04 in Calm     58% 0.00 in
12:54 59.8 °F 42.7 °F 30.03 in SSE 3.0 mph 4.0 mph 53% 0.00 in
12:59 60.3 °F 43.6 °F 30.03 in ESE 1.0 mph 1.0 mph 54% 0.00 in
13:05 61.0 °F 42.2 °F 30.03 in ESE 3.0 mph 3.0 mph 50% 0.00 in
13:10 61.3 °F 42.0 °F 30.02 in ESE 1.0 mph 4.0 mph 49% 0.00 in
13:20 61.2 °F 42.4 °F 30.02 in Calm     50% 0.00 in
13:25 61.0 °F 41.7 °F 30.02 in Calm   1.0 mph 49% 0.00 in
13:30 61.1 °F 42.3 °F 30.02 in ESE 3.0 mph 4.0 mph 50% 0.00 in
13:35 61.2 °F 41.4 °F 30.01 in Calm   1.0 mph 48% 0.00 in
13:40 61.3 °F 42.5 °F 30.01 in Calm   1.0 mph 50% 0.00 in
13:45 61.6 °F 42.8 °F 30.01 in SE 2.0 mph 6.0 mph 50% 0.00 in
13:47 61.7 °F 42.4 °F 30.01 in ESE 3.0 mph 6.0 mph 49% 0.00 in
13:52 62.1 °F 43.3 °F 30.00 in SE 1.0 mph 1.0 mph 50% 0.00 in
13:57 62.7 °F 43.8 °F 30.00 in NE 3.0 mph 8.0 mph 50% 0.00 in
14:02 62.9 °F 44.5 °F 30.01 in ESE 1.0 mph 3.0 mph 51% 0.00 in
14:07 62.6 °F 45.2 °F 30.00 in ENE 1.0 mph 5.0 mph 53% 0.00 in
14:12 61.9 °F 45.6 °F 30.00 in Calm   2.0 mph 55% 0.00 in
14:17 61.5 °F 46.1 °F 30.00 in SW 1.0 mph 2.0 mph 57% 0.00 in
14:22 61.1 °F 47.1 °F 29.99 in SSW 1.0 mph 2.0 mph 60% 0.00 in
14:27 60.7 °F 47.6 °F 29.99 in SW 1.0 mph 2.0 mph 62% 0.00 in
14:32 60.5 °F 47.4 °F 29.99 in NW 4.0 mph 5.0 mph 62% 0.00 in
14:37 60.8 °F 47.7 °F 29.99 in Calm   4.0 mph 62% 0.00 in
14:42 61.3 °F 48.2 °F 29.99 in ESE 2.0 mph 4.0 mph 62% 0.00 in
14:47 61.3 °F 48.6 °F 29.99 in Calm     63% 0.00 in
14:52 61.1 °F 48.4 °F 29.98 in Calm     63% 0.00 in
14:57 60.9 °F 48.7 °F 29.98 in Calm   1.0 mph 64% 0.00 in
15:02 60.7 °F 48.5 °F 29.98 in Calm     64% 0.00 in
15:08 60.6 °F 48.8 °F 29.98 in Calm   5.0 mph 65% 0.00 in
15:13 60.5 °F 49.5 °F 29.98 in SE 2.0 mph 2.0 mph 67% 0.00 in
15:18 60.5 °F 49.5 °F 29.97 in East 2.0 mph 2.0 mph 67% 0.00 in
15:23 60.3 °F 49.7 °F 29.98 in Calm   2.0 mph 68% 0.00 in
15:28 60.2 °F 50.0 °F 29.98 in East 2.0 mph 5.0 mph 69% 0.00 in
15:33 60.1 °F 49.9 °F 29.98 in ESE 1.0 mph 5.0 mph 69% 0.00 in
15:38 60.0 °F 50.2 °F 29.98 in ESE 2.0 mph 4.0 mph 70% 0.00 in
15:43 59.9 °F 50.5 °F 29.98 in Calm   1.0 mph 71% 0.00 in
15:48 59.8 °F 50.4 °F 29.97 in Calm   1.0 mph 71% 0.00 in
15:53 59.7 °F 50.3 °F 29.97 in Calm   2.0 mph 71% 0.00 in
15:58 59.7 °F 50.7 °F 29.97 in Calm   2.0 mph 72% 0.00 in
16:03 59.6 °F 51.0 °F 29.97 in Calm   1.0 mph 73% 0.00 in
16:08 59.6 °F 51.0 °F 29.97 in Calm   2.0 mph 73% 0.00 in
16:13 59.6 °F 51.0 °F 29.96 in East 1.0 mph 2.0 mph 73% 0.00 in
16:18 59.7 °F 51.0 °F 29.96 in Calm   2.0 mph 73% 0.00 in
16:24 59.8 °F 50.8 °F 29.96 in East 1.0 mph 4.0 mph 72% 0.00 in
16:34 60.0 °F 51.0 °F 29.96 in NW 1.0 mph 2.0 mph 72% 0.00 in
16:39 59.9 °F 50.5 °F 29.96 in Calm   4.0 mph 71% 0.00 in
16:44 60.0 °F 49.4 °F 29.96 in WSW 2.0 mph 8.0 mph 68% 0.00 in
16:49 60.2 °F 49.2 °F 29.96 in Calm   6.0 mph 67% 0.00 in
16:54 60.1 °F 49.5 °F 29.95 in East 1.0 mph 6.0 mph 68% 0.00 in
16:59 60.1 °F 49.1 °F 29.95 in Calm   8.0 mph 67% 0.00 in
17:04 60.1 °F 49.5 °F 29.94 in WNW 1.0 mph 4.0 mph 68% 0.00 in
17:09 59.9 °F 48.5 °F 29.94 in SW 1.0 mph 2.0 mph 66% 0.00 in
17:14 59.8 °F 49.2 °F 29.94 in WSW 1.0 mph 3.0 mph 68% 0.00 in
17:19 59.7 °F 49.5 °F 29.94 in Calm   3.0 mph 69% 0.00 in
17:24 59.6 °F 49.0 °F 29.94 in East 3.0 mph 5.0 mph 68% 0.00 in
17:29 59.6 °F 47.8 °F 29.93 in SSW 1.0 mph 5.0 mph 65% 0.00 in
17:34 59.8 °F 48.4 °F 29.94 in Calm   9.0 mph 66% 0.00 in
17:39 59.9 °F 48.5 °F 29.93 in ESE 1.0 mph 6.0 mph 66% 0.00 in
17:44 59.8 °F 47.6 °F 29.93 in West 4.0 mph 4.0 mph 64% 0.00 in
17:50 59.8 °F 48.0 °F 29.93 in Calm     65% 0.00 in
17:55 59.8 °F 48.0 °F 29.93 in Calm     65% 0.00 in
18:00 59.7 °F 47.9 °F 29.93 in Calm     65% 0.00 in
18:05 59.5 °F 48.2 °F 29.93 in Calm     66% 0.00 in
18:10 59.4 °F 47.2 °F 29.92 in WSW 2.0 mph 3.0 mph 64% 0.00 in
18:15 59.3 °F 46.7 °F 29.92 in East 1.0 mph 4.0 mph 63% 0.00 in
18:20 59.3 °F 47.1 °F 29.92 in Calm   1.0 mph 64% 0.00 in
18:25 59.1 °F 47.4 °F 29.92 in Calm   2.0 mph 65% 0.00 in
18:30 59.0 °F 47.3 °F 29.91 in Calm   1.0 mph 65% 0.00 in
18:35 58.9 °F 47.6 °F 29.92 in Calm     66% 0.00 in
18:40 58.7 °F 47.8 °F 29.91 in Calm   1.0 mph 67% 0.00 in
18:50 58.3 °F 47.8 °F 29.91 in Calm     68% 0.00 in
18:55 58.1 °F 48.0 °F 29.91 in Calm     69% 0.00 in
19:01 58.0 °F 47.5 °F 29.91 in Calm     68% 0.00 in
19:06 58.0 °F 47.9 °F 29.91 in West 2.0 mph 4.0 mph 69% 0.00 in
19:11 57.9 °F 48.2 °F 29.91 in West 2.0 mph 3.0 mph 70% 0.00 in
19:16 57.9 °F 48.2 °F 29.91 in WNW 1.0 mph 4.0 mph 70% 0.00 in
19:21 58.0 °F 48.3 °F 29.91 in Calm   2.0 mph 70% 0.00 in
19:27 58.1 °F 48.4 °F 29.91 in West 1.0 mph 5.0 mph 70% 0.00 in
19:32 57.9 °F 48.6 °F 29.91 in NE 1.0 mph 6.0 mph 71% 0.00 in
19:37 57.8 °F 48.8 °F 29.90 in Calm   2.0 mph 72% 0.00 in
19:42 57.7 °F 48.8 °F 29.90 in SSW 2.0 mph 4.0 mph 72% 0.00 in
19:47 57.6 °F 49.0 °F 29.90 in Calm     73% 0.00 in
19:52 57.5 °F 48.9 °F 29.90 in SE 1.0 mph 3.0 mph 73% 0.00 in
19:57 57.4 °F 49.5 °F 29.90 in NW 1.0 mph 5.0 mph 75% 0.00 in
20:02 57.2 °F 50.1 °F 29.90 in ENE 2.0 mph 5.0 mph 77% 0.00 in
20:07 57.0 °F 50.2 °F 29.90 in East 3.0 mph 7.0 mph 78% 0.00 in
20:14 56.5 °F 50.4 °F 29.90 in Calm   7.0 mph 80% 0.00 in
20:19 56.3 °F 50.2 °F 29.90 in South 1.0 mph 6.0 mph 80% 0.00 in
20:24 56.0 °F 50.3 °F 29.90 in SSW 2.0 mph 9.0 mph 81% 0.00 in
20:29 55.9 °F 50.2 °F 29.90 in South 1.0 mph 6.0 mph 81% 0.00 in
20:34 55.8 °F 50.1 °F 29.90 in NW 2.0 mph 9.0 mph 81% 0.00 in
20:35 55.8 °F 50.1 °F 29.90 in SSW 2.0 mph 4.0 mph 81% 0.00 in
20:40 55.7 °F 50.0 °F 29.90 in WSW 1.0 mph 6.0 mph 81% 0.00 in
20:45 55.7 °F 50.0 °F 29.90 in WSW 2.0 mph 2.0 mph 81% 0.00 in
20:50 55.7 °F 50.0 °F 29.90 in East 3.0 mph 3.0 mph 81% 0.00 in
20:56 55.6 °F 49.9 °F 29.89 in ESE 1.0 mph 4.0 mph 81% 0.00 in
21:01 55.6 °F 50.2 °F 29.90 in Calm     82% 0.00 in
21:06 55.6 °F 50.2 °F 29.89 in SE 1.0 mph 4.0 mph 82% 0.00 in
21:11 55.5 °F 49.8 °F 29.89 in NNE 1.0 mph 4.0 mph 81% 0.00 in
21:16 55.6 °F 50.2 °F 29.89 in SE 2.0 mph 5.0 mph 82% 0.00 in
21:21 55.6 °F 50.2 °F 29.89 in SE 2.0 mph 2.0 mph 82% 0.00 in
21:26 55.6 °F 49.9 °F 29.89 in SSW 1.0 mph 2.0 mph 81% 0.00 in
21:31 55.6 °F 49.9 °F 29.89 in ESE 2.0 mph 2.0 mph 81% 0.00 in
21:36 55.7 °F 50.0 °F 29.89 in Calm     81% 0.00 in
21:41 55.7 °F 50.0 °F 29.89 in Calm   2.0 mph 81% 0.00 in
21:46 55.8 °F 50.1 °F 29.89 in ESE 2.0 mph 5.0 mph 81% 0.00 in
21:51 55.8 °F 49.7 °F 29.88 in ESE 2.0 mph 4.0 mph 80% 0.00 in
21:56 56.0 °F 49.9 °F 29.88 in ESE 2.0 mph 5.0 mph 80% 0.00 in
22:01 56.0 °F 50.3 °F 29.87 in Calm   5.0 mph 81% 0.00 in
22:06 56.0 °F 49.9 °F 29.88 in East 1.0 mph 2.0 mph 80% 0.00 in
22:12 56.0 °F 49.9 °F 29.88 in East 5.0 mph 5.0 mph 80% 0.00 in
22:17 56.1 °F 50.4 °F 29.88 in Calm   5.0 mph 81% 0.00 in
22:22 56.1 °F 50.4 °F 29.88 in WNW 2.0 mph 2.0 mph 81% 0.00 in
22:27 56.1 °F 50.7 °F 29.89 in Calm   2.0 mph 82% 0.00 in
22:32 56.0 °F 50.9 °F 29.89 in SW 1.0 mph 1.0 mph 83% 0.00 in
22:37 55.9 °F 50.8 °F 29.90 in SW 2.0 mph 2.0 mph 83% 0.00 in
22:42 55.9 °F 51.1 °F 29.89 in Calm     84% 0.00 in
22:47 55.8 °F 51.0 °F 29.89 in East 3.0 mph 4.0 mph 84% 0.00 in
22:52 55.7 °F 51.0 °F 29.90 in West 1.0 mph 4.0 mph 84% 0.00 in
22:57 55.6 °F 51.2 °F 29.90 in SW 3.0 mph 3.0 mph 85% 0.00 in
23:02 55.5 °F 51.1 °F 29.90 in Calm   4.0 mph 85% 0.00 in
23:07 55.5 °F 51.1 °F 29.90 in SW 1.0 mph 6.0 mph 85% 0.00 in
23:12 55.4 °F 51.3 °F 29.91 in Calm     86% 0.00 in
23:23 55.3 °F 51.2 °F 29.91 in West 1.0 mph 1.0 mph 86% 0.00 in
23:28 55.2 °F 51.1 °F 29.91 in Calm   2.0 mph 86% 0.00 in
23:33 55.1 °F 51.3 °F 29.91 in Calm   3.0 mph 87% 0.00 in
23:38 55.0 °F 51.5 °F 29.91 in Calm   3.0 mph 88% 0.00 in
23:43 54.8 °F 51.6 °F 29.91 in Calm   2.0 mph 89% 0.00 in
23:48 54.6 °F 51.4 °F 29.91 in Calm     89% 0.01 in
23:53 54.2 °F 51.3 °F 29.91 in Calm   2.0 mph 90% 0.05 in
23:58 53.6 °F 50.7 °F 29.91 in Calm   2.0 mph 90% 0.07 in
Woodinville, Washington USA
Compliments of Weather Underground - 4 mb